createdAt,value
2023-01-15T00:02:16.714Z,1.10
2023-01-15T00:04:43.112Z,0.90
2023-01-15T00:07:09.345Z,0.83
2023-01-15T00:09:35.616Z,1.00
2023-01-15T00:12:02.233Z,0.93
2023-01-15T00:14:28.514Z,1.00
2023-01-15T00:16:54.752Z,0.90
2023-01-15T00:19:20.990Z,0.83
2023-01-15T00:21:47.366Z,0.70
2023-01-15T00:24:32.468Z,0.80
2023-01-15T00:27:17.854Z,0.87
2023-01-15T00:29:44.383Z,0.73
2023-01-15T00:32:10.993Z,0.70
2023-01-15T00:34:37.497Z,0.70
2023-01-15T00:37:04.143Z,0.80
2023-01-15T00:39:30.385Z,0.83
2023-01-15T00:41:56.663Z,0.90
2023-01-15T00:44:22.968Z,0.70
2023-01-15T00:46:49.271Z,0.70
2023-01-15T00:49:15.600Z,0.80
2023-01-15T00:51:41.824Z,0.90
2023-01-15T00:54:08.109Z,0.80
2023-01-15T00:56:34.561Z,0.80
2023-01-15T00:59:01.784Z,0.63
2023-01-15T01:01:28.146Z,0.80
2023-01-15T01:03:54.468Z,0.90
2023-01-15T01:06:21.100Z,0.83
2023-01-15T01:08:47.549Z,0.70
2023-01-15T01:11:15.652Z,0.73
2023-01-15T01:13:42.371Z,0.73
2023-01-15T01:16:22.854Z,0.70
2023-01-15T01:18:49.165Z,0.60
2023-01-15T01:21:15.391Z,0.70
2023-01-15T01:23:41.705Z,0.77
2023-01-15T01:26:07.957Z,0.83
2023-01-15T01:28:34.212Z,0.60
2023-01-15T01:31:00.438Z,0.70
2023-01-15T01:33:27.331Z,0.60
2023-01-15T01:35:53.548Z,0.60
2023-01-15T01:38:19.752Z,0.50
2023-01-15T01:40:45.996Z,0.80
2023-01-15T01:43:22.735Z,0.50
2023-01-15T01:45:49.054Z,0.70
2023-01-15T01:48:16.439Z,0.60
2023-01-15T01:50:43.167Z,0.70
2023-01-15T01:53:12.655Z,0.90
2023-01-15T01:55:38.953Z,0.70
2023-01-15T01:58:06.715Z,0.60
2023-01-15T02:00:33.676Z,0.70
2023-01-15T02:03:01.018Z,0.50
2023-01-15T02:05:27.215Z,0.70
2023-01-15T02:07:53.428Z,0.60
2023-01-15T02:10:19.728Z,0.50
2023-01-15T02:12:49.478Z,0.63
2023-01-15T02:15:18.988Z,0.60
2023-01-15T02:18:00.385Z,0.70
2023-01-15T02:20:37.312Z,0.77
2023-01-15T02:23:03.596Z,0.67
2023-01-15T02:25:37.591Z,0.93
2023-01-15T02:28:24.089Z,0.73
2023-01-15T02:30:54.961Z,0.70
2023-01-15T02:33:28.455Z,0.50
2023-01-15T02:35:57.891Z,0.70
2023-01-15T02:38:25.507Z,0.60
2023-01-15T02:40:53.964Z,0.80
2023-01-15T02:43:21.010Z,0.60
2023-01-15T02:45:50.401Z,0.50
2023-01-15T02:48:19.207Z,0.60
2023-01-15T02:50:48.694Z,0.47
2023-01-15T02:53:17.574Z,0.80
2023-01-15T02:55:46.021Z,0.50
2023-01-15T02:58:14.836Z,0.40
2023-01-15T03:00:42.727Z,0.50
2023-01-15T03:03:19.194Z,0.57
2023-01-15T03:05:58.086Z,0.53
2023-01-15T03:08:24.433Z,0.60
2023-01-15T03:10:58.827Z,0.50
2023-01-15T03:13:29.743Z,0.53
2023-01-15T03:16:19.075Z,0.57
2023-01-15T03:18:56.311Z,0.50
2023-01-15T03:21:35.985Z,0.37
2023-01-15T03:24:04.299Z,0.60
2023-01-15T03:26:30.625Z,0.50
2023-01-15T03:28:57.061Z,0.40
2023-01-15T03:31:23.288Z,0.60
2023-01-15T03:33:49.595Z,0.50
2023-01-15T03:36:17.404Z,0.63
2023-01-15T03:38:47.123Z,0.50
2023-01-15T03:41:24.763Z,0.70
2023-01-15T03:44:20.524Z,0.70
2023-01-15T03:47:10.490Z,0.43
2023-01-15T03:49:43.895Z,0.50
2023-01-15T03:52:13.142Z,0.60
2023-01-15T03:54:52.132Z,0.80
2023-01-15T03:57:30.614Z,0.40
2023-01-15T03:59:58.820Z,0.63
2023-01-15T04:02:26.112Z,0.70
2023-01-15T04:04:53.385Z,0.47
2023-01-15T04:07:19.978Z,0.70
2023-01-15T04:09:46.409Z,0.40
2023-01-15T04:12:12.680Z,0.60
2023-01-15T04:14:38.975Z,0.43
2023-01-15T04:17:05.238Z,0.40
2023-01-15T04:19:31.485Z,0.50
2023-01-15T04:21:58.331Z,0.40
2023-01-15T04:24:24.635Z,0.50
2023-01-15T04:26:50.881Z,0.50
2023-01-15T04:29:17.197Z,0.37
2023-01-15T04:31:43.429Z,0.43
2023-01-15T04:34:09.643Z,0.30
2023-01-15T04:36:35.930Z,0.50
2023-01-15T04:39:02.809Z,0.40
2023-01-15T04:41:47.631Z,0.40
2023-01-15T04:44:13.894Z,0.50
2023-01-15T04:46:42.189Z,0.57
2023-01-15T04:49:10.216Z,0.60
2023-01-15T04:51:37.381Z,0.43
2023-01-15T04:54:04.592Z,0.33
2023-01-15T04:56:31.338Z,0.60
2023-01-15T04:59:00.545Z,0.60
2023-01-15T05:01:27.017Z,0.50
2023-01-15T05:03:53.360Z,0.57
2023-01-15T05:06:19.640Z,0.43
2023-01-15T05:08:46.217Z,0.60
2023-01-15T05:11:12.471Z,0.70
2023-01-15T05:13:38.966Z,0.60
2023-01-15T05:16:09.014Z,0.80
2023-01-15T05:18:35.539Z,0.60
2023-01-15T05:21:01.815Z,0.50
2023-01-15T05:23:28.130Z,0.60
2023-01-15T05:25:54.344Z,0.77
2023-01-15T05:28:21.161Z,0.70
2023-01-15T05:30:47.404Z,0.70
2023-01-15T05:33:13.955Z,0.67
2023-01-15T05:35:40.212Z,0.70
2023-01-15T05:38:06.883Z,0.60
2023-01-15T05:40:33.162Z,0.60
2023-01-15T05:42:59.393Z,0.60
2023-01-15T05:45:25.634Z,0.60
2023-01-15T05:47:54.721Z,0.60
2023-01-15T05:50:20.959Z,0.50
2023-01-15T05:52:47.252Z,0.60
2023-01-15T05:55:13.476Z,0.53
2023-01-15T05:57:39.710Z,0.40
2023-01-15T06:00:06.330Z,0.70
2023-01-15T06:02:32.574Z,0.50
2023-01-15T06:04:58.792Z,0.50
2023-01-15T06:07:25.042Z,0.60
2023-01-15T06:09:51.260Z,0.57
2023-01-15T06:12:17.486Z,0.73
2023-01-15T06:14:43.719Z,0.50
2023-01-15T06:17:10.034Z,0.70
2023-01-15T06:19:36.281Z,0.50
2023-01-15T06:22:03.737Z,0.60
2023-01-15T06:24:30.922Z,0.80
2023-01-15T06:26:57.146Z,0.60
2023-01-15T06:29:23.412Z,0.60
2023-01-15T06:31:49.795Z,0.60
2023-01-15T06:34:16.193Z,0.70
2023-01-15T06:36:42.551Z,0.50
2023-01-15T06:39:08.766Z,0.73
2023-01-15T06:41:53.727Z,0.70
2023-01-15T06:44:38.721Z,1.07
2023-01-15T06:47:22.702Z,0.60
2023-01-15T06:49:50.459Z,0.50
2023-01-15T06:52:16.767Z,0.63
2023-01-15T06:54:43.052Z,0.80
2023-01-15T06:57:09.313Z,0.80
2023-01-15T06:59:35.545Z,0.60
2023-01-15T07:02:01.963Z,0.70
2023-01-15T07:04:28.274Z,0.90
2023-01-15T07:06:54.564Z,0.60
2023-01-15T07:09:20.796Z,0.80
2023-01-15T07:11:49.936Z,0.90
2023-01-15T07:14:20.089Z,0.80
2023-01-15T07:16:46.724Z,0.63
2023-01-15T07:19:13.334Z,0.70
2023-01-15T07:21:39.653Z,0.70
2023-01-15T07:24:06.107Z,0.80
2023-01-15T07:26:32.375Z,0.70
2023-01-15T07:28:58.597Z,0.70
2023-01-15T07:31:24.877Z,0.77
2023-01-15T07:33:51.167Z,0.53
2023-01-15T07:36:17.406Z,0.67
2023-01-15T07:38:43.650Z,0.70
2023-01-15T07:41:28.512Z,0.60
2023-01-15T07:44:13.298Z,0.80
2023-01-15T07:46:58.655Z,0.73
2023-01-15T07:49:43.482Z,0.70
2023-01-15T07:52:09.750Z,0.60
2023-01-15T07:54:35.972Z,0.60
2023-01-15T07:57:02.480Z,0.73
2023-01-15T07:59:28.695Z,0.80
2023-01-15T08:01:55.091Z,0.80
2023-01-15T08:04:21.435Z,0.70
2023-01-15T08:06:47.652Z,0.70
2023-01-15T08:09:13.959Z,0.50
2023-01-15T08:11:58.696Z,0.70
2023-01-15T08:14:43.683Z,0.87
2023-01-15T08:17:09.912Z,0.70
2023-01-15T08:19:36.293Z,0.60
2023-01-15T08:22:02.517Z,0.70
2023-01-15T08:24:29.288Z,0.70
2023-01-15T08:26:55.523Z,0.60
2023-01-15T08:29:22.431Z,0.63
2023-01-15T08:31:48.953Z,0.70
2023-01-15T08:34:15.244Z,0.83
2023-01-15T08:36:41.512Z,0.77
2023-01-15T08:39:07.745Z,0.70
2023-01-15T08:41:34.018Z,0.90
2023-01-15T08:44:00.248Z,0.77
2023-01-15T08:46:26.464Z,0.60
2023-01-15T08:48:53.363Z,0.60
2023-01-15T08:51:19.878Z,1.00
2023-01-15T08:53:46.236Z,0.80
2023-01-15T08:56:19.138Z,0.97
2023-01-15T08:58:45.567Z,0.63
2023-01-15T09:01:15.758Z,0.70
2023-01-15T09:03:42.897Z,0.73
2023-01-15T09:06:11.057Z,0.57
2023-01-15T09:08:37.877Z,0.60
2023-01-15T09:11:04.797Z,0.70
2023-01-15T09:13:31.273Z,0.90
2023-01-15T09:16:00.881Z,0.70
2023-01-15T09:18:27.221Z,0.80
2023-01-15T09:20:53.484Z,0.70
2023-01-15T09:23:19.854Z,0.80
2023-01-15T09:25:59.166Z,0.73
2023-01-15T09:28:25.449Z,0.60
2023-01-15T09:30:51.780Z,0.90
2023-01-15T09:33:18.656Z,0.83
2023-01-15T09:35:44.985Z,0.70
2023-01-15T09:38:12.180Z,0.70
2023-01-15T09:40:52.303Z,0.70
2023-01-15T09:43:27.284Z,0.80
2023-01-15T09:46:02.183Z,0.70
2023-01-15T09:48:44.603Z,0.80
2023-01-15T09:51:22.635Z,0.80
2023-01-15T09:53:55.000Z,0.70
2023-01-15T09:56:23.520Z,1.03
2023-01-15T09:58:50.543Z,0.80
2023-01-15T10:01:18.726Z,0.70
2023-01-15T10:03:47.664Z,0.90
2023-01-15T10:06:15.962Z,0.67
2023-01-15T10:08:46.275Z,0.90
2023-01-15T10:11:15.490Z,0.80
2023-01-15T10:13:45.411Z,0.80
2023-01-15T10:16:13.122Z,0.60
2023-01-15T10:18:42.716Z,0.90
2023-01-15T10:21:30.051Z,1.60
2023-01-15T10:24:15.150Z,1.20
2023-01-15T10:26:51.122Z,0.80
2023-01-15T10:29:21.597Z,0.83
2023-01-15T10:31:50.692Z,0.80
2023-01-15T10:34:19.680Z,1.00
2023-01-15T10:36:48.899Z,1.13
2023-01-15T10:39:23.481Z,0.80
2023-01-15T10:41:59.652Z,1.00
2023-01-15T10:44:44.821Z,0.87
2023-01-15T10:47:12.469Z,0.80
2023-01-15T10:49:39.192Z,0.80
2023-01-15T10:52:19.310Z,0.87
2023-01-15T10:54:50.208Z,1.07
2023-01-15T10:57:21.330Z,1.20
2023-01-15T10:59:47.802Z,1.03
2023-01-15T11:02:34.927Z,1.00
2023-01-15T11:05:01.818Z,0.83
2023-01-15T11:07:36.910Z,0.93
2023-01-15T11:10:05.303Z,0.90
2023-01-15T11:13:06.764Z,1.10
2023-01-15T11:15:53.011Z,1.10
2023-01-15T11:18:43.925Z,0.90
2023-01-15T11:21:15.343Z,0.93
2023-01-15T11:23:42.099Z,0.90
2023-01-15T11:26:19.120Z,1.00
2023-01-15T11:28:46.503Z,1.10
2023-01-15T11:31:13.621Z,0.90
2023-01-15T11:33:40.566Z,1.00
2023-01-15T11:36:08.126Z,1.10
2023-01-15T11:38:44.887Z,1.10
2023-01-15T11:41:23.165Z,0.93
2023-01-15T11:44:17.910Z,0.97
2023-01-15T11:47:05.935Z,1.10
2023-01-15T11:49:50.703Z,0.97
2023-01-15T11:52:18.953Z,1.10
2023-01-15T11:54:47.154Z,1.00
2023-01-15T11:57:23.458Z,1.10
2023-01-15T11:59:50.014Z,0.90
2023-01-15T12:02:23.968Z,0.80
2023-01-15T12:04:56.973Z,0.97
2023-01-15T12:07:24.537Z,0.80
2023-01-15T12:09:50.747Z,1.07
2023-01-15T12:12:33.921Z,0.90
2023-01-15T12:15:00.139Z,0.80
2023-01-15T12:17:37.314Z,1.17
2023-01-15T12:20:24.073Z,0.77
2023-01-15T12:22:59.676Z,0.80
2023-01-15T12:25:33.155Z,0.97
2023-01-15T12:28:18.223Z,0.70
2023-01-15T12:30:59.690Z,0.73
2023-01-15T12:33:25.996Z,1.30
2023-01-15T12:35:56.816Z,0.90
2023-01-15T12:38:37.252Z,0.80
2023-01-15T12:41:10.583Z,0.90
2023-01-15T12:43:55.373Z,0.80
2023-01-15T12:46:31.755Z,0.83
2023-01-15T12:49:03.766Z,0.90
2023-01-15T12:51:35.091Z,0.73
2023-01-15T12:54:11.128Z,1.17
2023-01-15T12:56:45.080Z,0.90
2023-01-15T12:59:17.493Z,0.77
2023-01-15T13:02:04.902Z,1.20
2023-01-15T13:04:38.196Z,1.00
2023-01-15T13:07:11.853Z,1.10
2023-01-15T13:09:46.957Z,0.87
2023-01-15T13:12:13.957Z,0.90
2023-01-15T13:14:40.684Z,0.90
2023-01-15T13:17:12.684Z,0.90
2023-01-15T13:19:41.944Z,1.00
2023-01-15T13:22:14.533Z,0.90
2023-01-15T13:24:41.459Z,0.73
2023-01-15T13:27:16.623Z,0.97
2023-01-15T13:29:56.748Z,0.97
2023-01-15T13:32:28.132Z,0.80
2023-01-15T13:34:57.483Z,1.00
2023-01-15T13:37:26.280Z,0.80
2023-01-15T13:39:55.420Z,1.03
2023-01-15T13:42:32.079Z,1.00
2023-01-15T13:45:00.886Z,0.80
2023-01-15T13:47:28.648Z,0.80
2023-01-15T13:49:56.329Z,0.90
2023-01-15T13:52:31.941Z,0.90
2023-01-15T13:55:00.016Z,0.90
2023-01-15T13:57:36.597Z,1.30
2023-01-15T14:00:06.536Z,1.10
2023-01-15T14:02:34.789Z,1.07
2023-01-15T14:05:11.787Z,1.00
2023-01-15T14:07:38.171Z,0.90
2023-01-15T14:10:08.503Z,1.00
2023-01-15T14:12:40.736Z,0.90
2023-01-15T14:15:19.193Z,1.00
2023-01-15T14:18:08.346Z,0.80
2023-01-15T14:20:44.375Z,0.90
2023-01-15T14:23:29.520Z,0.97
2023-01-15T14:26:02.528Z,0.90
2023-01-15T14:28:36.944Z,1.10
2023-01-15T14:31:21.777Z,1.20
2023-01-15T14:34:05.933Z,1.17
2023-01-15T14:36:40.902Z,0.70
2023-01-15T14:39:20.502Z,1.00
2023-01-15T14:42:05.289Z,0.87
2023-01-15T14:44:33.074Z,1.00
2023-01-15T14:47:01.411Z,0.90
2023-01-15T14:49:31.391Z,0.90
2023-01-15T14:51:58.170Z,1.40
2023-01-15T14:54:25.042Z,1.40
2023-01-15T14:56:53.410Z,0.83
2023-01-15T14:59:23.254Z,0.80
2023-01-15T15:01:49.673Z,0.90
2023-01-15T15:04:28.154Z,0.87
2023-01-15T15:06:59.321Z,0.80
2023-01-15T15:09:34.797Z,1.30
2023-01-15T15:12:20.290Z,1.20
2023-01-15T15:14:53.489Z,1.20
2023-01-15T15:17:25.747Z,1.10
2023-01-15T15:19:57.101Z,0.90
2023-01-15T15:22:26.159Z,0.80
2023-01-15T15:24:54.016Z,0.77
2023-01-15T15:27:22.005Z,0.63
2023-01-15T15:29:48.737Z,0.70
2023-01-15T15:32:19.948Z,0.90
2023-01-15T15:34:48.252Z,1.23
2023-01-15T15:37:18.791Z,0.90
2023-01-15T15:39:53.904Z,0.70
2023-01-15T15:42:42.989Z,0.87
2023-01-15T15:45:36.505Z,1.00
2023-01-15T15:48:52.874Z,1.07
2023-01-15T15:51:36.470Z,0.90
2023-01-15T15:54:10.292Z,1.13
2023-01-15T15:56:37.247Z,1.20
2023-01-15T15:59:05.237Z,0.73
2023-01-15T16:01:38.550Z,1.00
2023-01-15T16:04:05.007Z,0.90
2023-01-15T16:06:31.673Z,1.10
2023-01-15T16:09:04.425Z,1.10
2023-01-15T16:11:31.487Z,1.30
2023-01-15T16:13:58.886Z,1.10
2023-01-15T16:16:27.091Z,1.00
2023-01-15T16:18:55.010Z,1.43
2023-01-15T16:21:35.386Z,0.87
2023-01-15T16:24:03.122Z,1.00
2023-01-15T16:26:32.922Z,0.97
2023-01-15T16:29:01.346Z,0.90
2023-01-15T16:31:32.278Z,0.97
2023-01-15T16:33:59.141Z,1.30
2023-01-15T16:36:26.557Z,1.30
2023-01-15T16:38:53.995Z,1.10
2023-01-15T16:41:24.228Z,1.13
2023-01-15T16:43:53.335Z,1.00
2023-01-15T16:46:20.272Z,1.07
2023-01-15T16:48:46.913Z,1.17
2023-01-15T16:51:28.210Z,0.90
2023-01-15T16:53:54.519Z,1.07
2023-01-15T16:56:25.041Z,1.10
2023-01-15T16:58:51.299Z,0.97
2023-01-15T17:01:36.521Z,1.00
2023-01-15T17:04:04.482Z,1.07
2023-01-15T17:06:30.867Z,0.90
2023-01-15T17:08:58.772Z,1.00
2023-01-15T17:11:26.827Z,0.97
2023-01-15T17:14:07.113Z,1.40
2023-01-15T17:16:33.402Z,1.87
2023-01-15T17:18:59.635Z,1.00
2023-01-15T17:21:28.770Z,1.17
2023-01-15T17:23:55.513Z,1.23
2023-01-15T17:26:23.699Z,1.37
2023-01-15T17:28:50.163Z,1.30
2023-01-15T17:31:21.446Z,1.80
2023-01-15T17:33:47.823Z,1.30
2023-01-15T17:36:14.040Z,1.40
2023-01-15T17:38:41.020Z,1.10
2023-01-15T17:41:10.787Z,1.70
2023-01-15T17:43:37.019Z,1.10
2023-01-15T17:46:03.445Z,1.43
2023-01-15T17:48:30.218Z,1.13
2023-01-15T17:50:59.356Z,1.43
2023-01-15T17:53:25.632Z,1.00
2023-01-15T17:56:10.648Z,1.20
2023-01-15T17:58:55.292Z,1.10
2023-01-15T18:01:41.696Z,1.23
2023-01-15T18:04:34.556Z,1.30
2023-01-15T18:07:01.591Z,1.30
2023-01-15T18:09:27.972Z,1.47
2023-01-15T18:11:54.189Z,1.27
2023-01-15T18:14:21.627Z,1.20
2023-01-15T18:16:47.915Z,1.30
2023-01-15T18:19:14.217Z,1.60
2023-01-15T18:21:40.886Z,1.97
2023-01-15T18:24:11.816Z,1.30
2023-01-15T18:26:38.991Z,2.00
2023-01-15T18:29:06.363Z,1.50
2023-01-15T18:31:33.024Z,1.33
2023-01-15T18:33:59.295Z,1.10
2023-01-15T18:36:25.537Z,1.70
2023-01-15T18:38:51.857Z,1.30
2023-01-15T18:41:48.407Z,1.30
2023-01-15T18:44:37.262Z,1.17
2023-01-15T18:47:09.827Z,1.60
2023-01-15T18:49:36.157Z,1.20
2023-01-15T18:52:21.259Z,1.40
2023-01-15T18:54:52.053Z,1.33
2023-01-15T18:57:18.345Z,1.07
2023-01-15T18:59:47.315Z,1.30
2023-01-15T19:02:14.521Z,1.27
2023-01-15T19:04:41.019Z,1.10
2023-01-15T19:07:07.716Z,1.50
2023-01-15T19:09:35.739Z,1.30
2023-01-15T19:12:02.100Z,1.20
2023-01-15T19:14:46.915Z,1.27
2023-01-15T19:17:35.743Z,1.20
2023-01-15T19:20:02.485Z,1.53
2023-01-15T19:22:47.743Z,1.30
2023-01-15T19:25:14.059Z,1.37
2023-01-15T19:27:43.237Z,1.30
2023-01-15T19:30:09.969Z,1.50
2023-01-15T19:32:36.292Z,2.90
2023-01-15T19:35:02.812Z,4.40
2023-01-15T19:37:29.105Z,1.63
2023-01-15T19:39:55.372Z,2.47
2023-01-15T19:42:40.264Z,1.83
2023-01-15T19:45:25.543Z,5.93
2023-01-15T19:48:10.467Z,5.17
2023-01-15T19:50:41.612Z,3.90
2023-01-15T19:53:09.105Z,2.50
2023-01-15T19:55:36.057Z,1.60
2023-01-15T19:58:06.883Z,1.50
2023-01-15T20:00:36.766Z,1.23
2023-01-15T20:03:04.722Z,1.40
2023-01-15T20:05:31.639Z,1.07
2023-01-15T20:07:58.375Z,1.20
2023-01-15T20:10:25.252Z,1.00
2023-01-15T20:13:10.120Z,1.30
2023-01-15T20:15:40.857Z,1.37
2023-01-15T20:18:07.259Z,1.30
2023-01-15T20:20:34.445Z,1.50
2023-01-15T20:23:00.950Z,1.27
2023-01-15T20:25:27.949Z,1.33
2023-01-15T20:27:54.989Z,1.20
2023-01-15T20:30:22.970Z,1.50
2023-01-15T20:32:50.182Z,1.30
2023-01-15T20:35:19.419Z,1.40
2023-01-15T20:37:47.805Z,1.00
2023-01-15T20:40:14.578Z,1.50
2023-01-15T20:42:59.563Z,1.63
2023-01-15T20:45:26.204Z,2.20
2023-01-15T20:48:11.179Z,1.43
2023-01-15T20:50:38.617Z,1.60
2023-01-15T20:53:05.921Z,1.50
2023-01-15T20:55:45.602Z,1.40
2023-01-15T20:58:20.954Z,1.53
2023-01-15T21:00:47.273Z,1.13
2023-01-15T21:03:13.554Z,1.10
2023-01-15T21:05:39.850Z,1.10
2023-01-15T21:08:06.130Z,1.30
2023-01-15T21:10:32.377Z,1.37
2023-01-15T21:12:58.673Z,1.10
2023-01-15T21:15:24.896Z,1.33
2023-01-15T21:17:51.129Z,1.30
2023-01-15T21:20:17.485Z,1.20
2023-01-15T21:22:44.366Z,1.53
2023-01-15T21:25:10.792Z,1.60
2023-01-15T21:27:37.202Z,1.40
2023-01-15T21:30:04.250Z,1.50
2023-01-15T21:32:30.463Z,1.60
2023-01-15T21:34:57.491Z,1.70
2023-01-15T21:37:23.747Z,1.53
2023-01-15T21:39:49.980Z,1.50
2023-01-15T21:42:36.367Z,1.67
2023-01-15T21:45:04.803Z,1.83
2023-01-15T21:47:31.189Z,1.40
2023-01-15T21:49:59.029Z,1.80
2023-01-15T21:52:25.651Z,1.60
2023-01-15T21:54:52.229Z,1.40
2023-01-15T21:57:22.365Z,1.80
2023-01-15T21:59:49.174Z,1.50
2023-01-15T22:02:18.934Z,1.33
2023-01-15T22:04:45.478Z,1.57
2023-01-15T22:07:12.138Z,1.20
2023-01-15T22:09:38.461Z,1.10
2023-01-15T22:12:05.354Z,1.10
2023-01-15T22:14:32.443Z,1.03
2023-01-15T22:16:59.640Z,1.10
2023-01-15T22:19:27.761Z,1.23
2023-01-15T22:21:55.467Z,1.30
2023-01-15T22:24:22.090Z,1.07
2023-01-15T22:26:54.610Z,1.47
2023-01-15T22:29:24.681Z,1.10
2023-01-15T22:31:51.514Z,1.03
2023-01-15T22:34:18.445Z,1.10
2023-01-15T22:36:44.657Z,1.30
2023-01-15T22:39:10.879Z,1.47
2023-01-15T22:41:56.052Z,1.33
2023-01-15T22:44:22.337Z,1.10
2023-01-15T22:46:50.473Z,1.20
2023-01-15T22:49:17.324Z,1.30
2023-01-15T22:51:43.787Z,1.10
2023-01-15T22:54:10.265Z,1.20
2023-01-15T22:56:36.471Z,1.20
2023-01-15T22:59:02.742Z,1.30
2023-01-15T23:01:29.086Z,1.57
2023-01-15T23:03:56.221Z,1.40
2023-01-15T23:06:27.453Z,1.00
2023-01-15T23:09:00.719Z,1.20
2023-01-15T23:11:27.825Z,1.10
2023-01-15T23:13:54.300Z,1.10
2023-01-15T23:16:21.421Z,1.30
2023-01-15T23:18:48.090Z,1.10
2023-01-15T23:21:16.004Z,1.10
2023-01-15T23:23:42.409Z,1.20
2023-01-15T23:26:10.519Z,1.17
2023-01-15T23:28:36.749Z,1.33
2023-01-15T23:31:03.316Z,1.00
2023-01-15T23:33:29.846Z,1.03
2023-01-15T23:35:56.774Z,1.17
2023-01-15T23:38:23.006Z,1.20
2023-01-15T23:40:49.301Z,1.10
2023-01-15T23:43:34.935Z,1.07
2023-01-15T23:46:21.258Z,1.00
2023-01-15T23:48:47.510Z,1.03
2023-01-15T23:51:15.200Z,1.00
2023-01-15T23:53:41.573Z,1.30
2023-01-15T23:56:07.897Z,1.00
2023-01-15T23:58:34.377Z,1.20
